Flight Information

DEPARTURE
EL MONTE, CA
Elevation:
295
Runways:
1/19 - 3995x75 - ASPH-G
ATIS:
118.75 626-444-1107
Ground:
125.9
Tower:
121.2
DESTINATION
,
Elevation:
TPA:
1000 (est.)


6774.3 NM73° True-14° Var59° HDG

Flight Plan:
(click to file on line)

1. Type
2. Aircraft Identification
3. Aircraft Type / Special Equipment
4. True Airspeed
kts
5. Departure Airport
(ICAO code)
6. Arriving Airport
(ICAO code)
7. Cruising Altitude
ft
8. Alternate Airport
(ICAO code)
9. Route of Flight
10. Remarks


00:00:00 Departure ATIS: Destination ATIS:

Clearance Limit:
Route:
Altitude: Expect in minutes
Frequency:
Transponder: (7500 Hijack / 7600 Lost Comms / 7700 Emergency)


KFUL 261429Z 00000KT 1 1/2SM BR OVC003 16/16 A2997 RMK AO2 T01610156 $
Time: 2022-06-26T14:29:00Z
1656254853
Winds: calm
Visibility: 1.5 sm
Clouds (AGL): OVC 300
Temperature: 16.1 C
Dew Point: 15.6 C
Pressure: 29.970472 in Hgbr


Notes:

Data extracted from FAA Digital Chart Supplement. Effective: 0901Z Thursday, 27 JAN 2022 to 0900z Thursday, 24 MAR 2022
Current ATIS data is provided courtisy of PilotEdge.